createdAt,value
2018-03-06T00:00:03.362Z,12.35
2018-03-06T00:02:34.533Z,9.70
2018-03-06T00:05:01.172Z,12.40
2018-03-06T00:07:28.712Z,11.30
2018-03-06T00:09:55.450Z,10.85
2018-03-06T00:12:22.102Z,11.90
2018-03-06T00:14:48.741Z,11.25
2018-03-06T00:17:16.243Z,12.43
2018-03-06T00:19:42.937Z,10.25
2018-03-06T00:22:10.308Z,11.57
2018-03-06T00:24:38.719Z,11.12
2018-03-06T00:27:06.224Z,11.50
2018-03-06T00:29:33.883Z,12.55
2018-03-06T00:32:00.563Z,11.88
2018-03-06T00:34:27.893Z,11.10
2018-03-06T00:36:54.606Z,10.50
2018-03-06T00:39:21.252Z,11.98
2018-03-06T00:41:49.671Z,12.52
2018-03-06T00:44:18.153Z,13.55
2018-03-06T00:46:44.952Z,11.63
2018-03-06T00:49:11.805Z,11.75
2018-03-06T00:51:38.547Z,14.77
2018-03-06T00:54:05.227Z,11.98
2018-03-06T00:56:36.449Z,13.65
2018-03-06T00:59:03.204Z,11.12
2018-03-06T01:01:29.965Z,13.52
2018-03-06T01:03:56.695Z,12.55
2018-03-06T01:06:23.896Z,16.52
2018-03-06T01:08:52.362Z,13.77
2018-03-06T01:11:19.246Z,15.02
2018-03-06T01:13:51.992Z,14.80
2018-03-06T01:16:19.821Z,13.82
2018-03-06T01:18:46.987Z,13.02
2018-03-06T01:21:15.098Z,14.98
2018-03-06T01:23:41.988Z,13.23
2018-03-06T01:26:09.213Z,16.92
2018-03-06T01:28:37.148Z,12.43
2018-03-06T01:31:04.486Z,13.82
2018-03-06T01:33:31.716Z,14.23
2018-03-06T01:35:59.575Z,15.82
2018-03-06T01:38:26.305Z,16.00
2018-03-06T01:40:52.940Z,14.43
2018-03-06T01:43:19.832Z,13.13
2018-03-06T01:45:46.518Z,15.38
2018-03-06T01:48:14.985Z,17.27
2018-03-06T01:50:43.700Z,16.55
2018-03-06T01:53:12.908Z,13.95
2018-03-06T01:55:39.613Z,14.93
2018-03-06T01:58:08.050Z,14.85
2018-03-06T02:00:35.808Z,16.90
2018-03-06T02:03:02.481Z,14.85
2018-03-06T02:05:30.239Z,14.87
2018-03-06T02:07:57.165Z,14.52
2018-03-06T02:10:23.910Z,16.98
2018-03-06T02:12:59.024Z,18.15
2018-03-06T02:15:25.842Z,13.95
2018-03-06T02:17:52.630Z,16.62
2018-03-06T02:20:20.168Z,15.48
2018-03-06T02:22:53.825Z,15.27
2018-03-06T02:25:21.545Z,16.42
2018-03-06T02:27:57.004Z,16.62
2018-03-06T02:30:28.433Z,13.98
2018-03-06T02:32:55.111Z,16.12
2018-03-06T02:35:23.351Z,18.92
2018-03-06T02:37:50.131Z,13.70
2018-03-06T02:40:17.667Z,13.85
2018-03-06T02:42:44.360Z,12.82
2018-03-06T02:45:17.284Z,15.27
2018-03-06T02:47:43.935Z,14.43
2018-03-06T02:50:10.705Z,16.83
2018-03-06T02:52:41.167Z,15.32
2018-03-06T02:55:12.092Z,16.62
2018-03-06T02:57:39.033Z,13.95
2018-03-06T03:00:05.693Z,14.75
2018-03-06T03:02:36.548Z,14.85
2018-03-06T03:05:03.319Z,15.30
2018-03-06T03:07:34.593Z,15.50
2018-03-06T03:10:02.773Z,15.30
2018-03-06T03:12:34.839Z,15.38
2018-03-06T03:15:01.568Z,17.37
2018-03-06T03:17:28.257Z,17.02
2018-03-06T03:19:54.910Z,14.75
2018-03-06T03:22:22.460Z,14.57
2018-03-06T03:24:49.208Z,16.85
2018-03-06T03:27:15.912Z,17.35
2018-03-06T03:29:44.220Z,17.12
2018-03-06T03:32:16.523Z,17.02
2018-03-06T03:34:46.667Z,19.05
2018-03-06T03:37:13.464Z,17.20
2018-03-06T03:39:41.159Z,17.35
2018-03-06T03:42:08.354Z,16.30
2018-03-06T03:44:35.099Z,15.60
2018-03-06T03:47:02.869Z,16.45
2018-03-06T03:49:30.487Z,19.37
2018-03-06T03:52:02.036Z,18.67
2018-03-06T03:54:28.956Z,17.60
2018-03-06T03:56:55.783Z,17.67
2018-03-06T03:59:22.501Z,18.42
2018-03-06T04:01:49.211Z,21.25
2018-03-06T04:04:15.979Z,19.12
2018-03-06T04:06:45.720Z,13.55
2018-03-06T04:09:12.946Z,18.70
2018-03-06T04:11:40.146Z,17.05
2018-03-06T04:14:10.835Z,17.67
2018-03-06T04:16:37.502Z,20.17
2018-03-06T04:19:04.212Z,17.00
2018-03-06T04:21:34.995Z,19.15
2018-03-06T04:24:02.343Z,24.73
2018-03-06T04:26:29.689Z,19.83
2018-03-06T04:29:00.963Z,20.80
2018-03-06T04:31:28.336Z,18.12
2018-03-06T04:33:55.032Z,20.23
2018-03-06T04:36:21.668Z,22.60
2018-03-06T04:38:49.075Z,22.60
2018-03-06T04:41:16.381Z,20.98
2018-03-06T04:43:45.854Z,22.33
2018-03-06T04:46:17.933Z,20.40
2018-03-06T04:48:48.849Z,17.92
2018-03-06T04:51:23.319Z,24.48
2018-03-06T04:53:52.054Z,24.35
2018-03-06T04:56:26.788Z,22.20
2018-03-06T04:58:59.563Z,22.62
2018-03-06T05:01:26.315Z,22.48
2018-03-06T05:03:57.096Z,21.02
2018-03-06T05:06:33.524Z,19.23
2018-03-06T05:09:00.311Z,22.50
2018-03-06T05:11:39.423Z,24.67
2018-03-06T05:14:07.929Z,20.77
2018-03-06T05:16:35.610Z,23.20
2018-03-06T05:19:04.206Z,27.05
2018-03-06T05:21:31.792Z,25.05
2018-03-06T05:24:06.676Z,22.92
2018-03-06T05:26:38.357Z,20.60
2018-03-06T05:29:10.676Z,20.12
2018-03-06T05:31:38.127Z,21.33
2018-03-06T05:34:05.447Z,24.50
2018-03-06T05:36:37.256Z,23.90
2018-03-06T05:39:08.904Z,20.65
2018-03-06T05:41:35.582Z,21.05
2018-03-06T05:44:02.819Z,23.92
2018-03-06T05:46:36.426Z,23.95
2018-03-06T05:49:04.427Z,20.10
2018-03-06T05:51:31.898Z,23.60
2018-03-06T05:53:58.767Z,25.65
2018-03-06T05:56:25.515Z,24.83
2018-03-06T05:58:53.162Z,27.13
2018-03-06T06:01:25.709Z,23.48
2018-03-06T06:03:53.000Z,24.90
2018-03-06T06:06:20.935Z,23.10
2018-03-06T06:08:56.719Z,24.35
2018-03-06T06:11:24.058Z,29.12
2018-03-06T06:13:55.209Z,30.05
2018-03-06T06:16:33.717Z,24.00
2018-03-06T06:19:11.497Z,26.87
2018-03-06T06:21:38.912Z,27.92
2018-03-06T06:24:09.241Z,23.38
2018-03-06T06:26:39.830Z,22.48
2018-03-06T06:29:06.615Z,26.75
2018-03-06T06:31:33.941Z,24.35
2018-03-06T06:34:02.768Z,25.92
2018-03-06T06:36:29.480Z,27.80
2018-03-06T06:38:56.195Z,22.80
2018-03-06T06:41:22.902Z,30.30
2018-03-06T06:43:49.639Z,25.88
2018-03-06T06:46:16.457Z,25.83
2018-03-06T06:48:43.827Z,26.85
2018-03-06T06:51:11.325Z,27.67
2018-03-06T06:53:38.943Z,22.85
2018-03-06T06:56:05.593Z,24.00
2018-03-06T06:58:32.222Z,25.55
2018-03-06T07:00:58.849Z,23.70
2018-03-06T07:03:25.461Z,26.33
2018-03-06T07:05:52.095Z,34.40
2018-03-06T07:08:18.727Z,24.73
2018-03-06T07:10:45.343Z,27.52
2018-03-06T07:13:12.022Z,28.70
2018-03-06T07:15:38.654Z,23.50
2018-03-06T07:18:05.305Z,25.02
2018-03-06T07:20:31.933Z,24.40
2018-03-06T07:22:58.657Z,24.10
2018-03-06T07:25:25.296Z,25.48
2018-03-06T07:27:51.915Z,22.98
2018-03-06T07:30:18.553Z,26.75
2018-03-06T07:32:45.927Z,23.05
2018-03-06T07:35:12.600Z,27.77
2018-03-06T07:37:39.211Z,20.25
2018-03-06T07:40:05.862Z,22.30
2018-03-06T07:42:32.481Z,25.83
2018-03-06T07:44:59.128Z,24.67
2018-03-06T07:47:25.791Z,25.35
2018-03-06T07:49:52.492Z,23.08
2018-03-06T07:52:19.740Z,29.48
2018-03-06T07:54:46.400Z,26.27
2018-03-06T07:57:13.028Z,22.52
2018-03-06T07:59:39.665Z,26.42
2018-03-06T08:02:06.303Z,24.80
2018-03-06T08:04:32.924Z,27.58
2018-03-06T08:06:59.577Z,23.45
2018-03-06T08:09:26.213Z,27.70
2018-03-06T08:11:52.854Z,26.35
2018-03-06T08:14:20.132Z,25.85
2018-03-06T08:16:46.764Z,24.40
2018-03-06T08:19:13.437Z,26.92
2018-03-06T08:21:40.116Z,26.73
2018-03-06T08:24:06.779Z,30.65
2018-03-06T08:26:33.472Z,24.98
2018-03-06T08:29:00.090Z,28.70
2018-03-06T08:31:26.838Z,30.85
2018-03-06T08:33:53.490Z,26.92
2018-03-06T08:36:20.161Z,30.37
2018-03-06T08:38:46.823Z,26.58
2018-03-06T08:41:13.440Z,28.33
2018-03-06T08:43:40.107Z,31.40
2018-03-06T08:46:06.825Z,29.98
2018-03-06T08:48:33.523Z,26.85
2018-03-06T08:51:00.142Z,27.73
2018-03-06T08:53:26.790Z,26.85
2018-03-06T08:55:53.422Z,29.73
2018-03-06T08:58:20.049Z,25.58
2018-03-06T09:00:46.691Z,27.10
2018-03-06T09:03:13.336Z,27.48
2018-03-06T09:05:39.990Z,30.48
2018-03-06T09:08:06.629Z,31.25
2018-03-06T09:10:33.271Z,29.20
2018-03-06T09:12:59.892Z,28.30
2018-03-06T09:15:26.544Z,27.67
2018-03-06T09:17:53.169Z,30.67
2018-03-06T09:20:19.828Z,30.55
2018-03-06T09:22:47.020Z,30.75
2018-03-06T09:25:13.678Z,29.45
2018-03-06T09:27:40.323Z,32.90
2018-03-06T09:30:06.948Z,30.70
2018-03-06T09:32:33.581Z,33.35
2018-03-06T09:35:00.232Z,34.75
2018-03-06T09:37:26.883Z,27.02
2018-03-06T09:39:53.566Z,32.30
2018-03-06T09:42:20.190Z,30.23
2018-03-06T09:44:46.851Z,31.60
2018-03-06T09:47:13.472Z,31.85
2018-03-06T09:49:40.783Z,29.58
2018-03-06T09:52:07.413Z,28.77
2018-03-06T09:54:34.054Z,29.02
2018-03-06T09:57:00.708Z,32.85
2018-03-06T09:59:27.340Z,31.75
2018-03-06T10:01:53.992Z,28.98
2018-03-06T10:04:20.645Z,27.35
2018-03-06T10:06:47.332Z,25.30
2018-03-06T10:09:13.988Z,31.92
2018-03-06T10:11:40.661Z,26.42
2018-03-06T10:14:07.291Z,30.98
2018-03-06T10:16:33.922Z,27.10
2018-03-06T10:19:00.598Z,33.08
2018-03-06T10:21:27.392Z,28.58
2018-03-06T10:23:54.013Z,32.42
2018-03-06T10:26:20.707Z,28.70
2018-03-06T10:28:47.321Z,30.08
2018-03-06T10:31:14.060Z,31.10
2018-03-06T10:33:40.673Z,29.10
2018-03-06T10:36:07.317Z,29.02
2018-03-06T10:38:33.967Z,33.55
2018-03-06T10:41:00.595Z,26.52
2018-03-06T10:43:27.228Z,31.50
2018-03-06T10:45:53.868Z,27.40
2018-03-06T10:48:20.532Z,33.83
2018-03-06T10:50:47.268Z,26.15
2018-03-06T10:53:13.949Z,24.67
2018-03-06T10:55:40.571Z,29.17
2018-03-06T10:58:07.208Z,28.65
2018-03-06T11:00:39.526Z,27.45
2018-03-06T11:03:06.728Z,24.58
2018-03-06T11:05:33.376Z,25.23
2018-03-06T11:08:00.012Z,27.15
2018-03-06T11:10:26.656Z,26.95
2018-03-06T11:12:53.356Z,29.48
2018-03-06T11:15:20.001Z,26.75
2018-03-06T11:17:46.624Z,28.58
2018-03-06T11:20:13.273Z,25.37
2018-03-06T11:22:39.908Z,26.37
2018-03-06T11:25:06.686Z,27.62
2018-03-06T11:27:33.456Z,26.37
2018-03-06T11:30:01.168Z,25.98
2018-03-06T11:32:28.175Z,26.48
2018-03-06T11:34:57.042Z,29.75
2018-03-06T11:37:28.544Z,25.80
2018-03-06T11:39:55.267Z,27.25
2018-03-06T11:42:22.176Z,24.05
2018-03-06T11:44:53.834Z,26.15
2018-03-06T11:47:22.322Z,25.90
2018-03-06T11:50:06.138Z,25.20
